sensor_id;sensor_type;location;lat;lon;timestamp;P1;durP1;ratioP1;P2;durP2;ratioP2
75667;SDS011;64266;48.798;44.756;2023-12-22T00:02:51;15.40;;;6.03;;
75667;SDS011;64266;48.798;44.756;2023-12-22T00:07:54;15.73;;;6.03;;
75667;SDS011;64266;48.798;44.756;2023-12-22T00:12:58;17.85;;;6.28;;
75667;SDS011;64266;48.798;44.756;2023-12-22T00:18:01;16.95;;;5.22;;
75667;SDS011;64266;48.798;44.756;2023-12-22T00:23:05;16.73;;;5.07;;
75667;SDS011;64266;48.798;44.756;2023-12-22T00:28:08;15.88;;;4.72;;
75667;SDS011;64266;48.798;44.756;2023-12-22T00:33:11;19.42;;;5.30;;
75667;SDS011;64266;48.798;44.756;2023-12-22T00:38:15;14.35;;;4.55;;
75667;SDS011;64266;48.798;44.756;2023-12-22T00:43:18;23.30;;;4.65;;
75667;SDS011;64266;48.798;44.756;2023-12-22T00:48:21;12.45;;;5.22;;
75667;SDS011;64266;48.798;44.756;2023-12-22T00:53:25;9.27;;;3.45;;
75667;SDS011;64266;48.798;44.756;2023-12-22T00:58:28;13.60;;;5.00;;
75667;SDS011;64266;48.798;44.756;2023-12-22T01:03:33;12.00;;;5.45;;
75667;SDS011;64266;48.798;44.756;2023-12-22T01:08:37;15.70;;;5.10;;
75667;SDS011;64266;48.798;44.756;2023-12-22T01:13:41;11.75;;;4.20;;
75667;SDS011;64266;48.798;44.756;2023-12-22T01:18:45;9.73;;;4.30;;
75667;SDS011;64266;48.798;44.756;2023-12-22T01:23:48;12.45;;;4.55;;
75667;SDS011;64266;48.798;44.756;2023-12-22T01:28:51;11.10;;;4.35;;
75667;SDS011;64266;48.798;44.756;2023-12-22T01:33:55;12.07;;;5.10;;
75667;SDS011;64266;48.798;44.756;2023-12-22T01:38:59;13.88;;;5.30;;
75667;SDS011;64266;48.798;44.756;2023-12-22T01:44:03;15.07;;;4.57;;
75667;SDS011;64266;48.798;44.756;2023-12-22T01:49:06;21.88;;;4.63;;
75667;SDS011;64266;48.798;44.756;2023-12-22T01:54:11;14.43;;;5.13;;
75667;SDS011;64266;48.798;44.756;2023-12-22T01:59:18;27.23;;;5.40;;
75667;SDS011;64266;48.798;44.756;2023-12-22T02:04:21;22.33;;;5.80;;
75667;SDS011;64266;48.798;44.756;2023-12-22T02:09:25;12.15;;;5.05;;
75667;SDS011;64266;48.798;44.756;2023-12-22T02:14:28;9.52;;;4.28;;
75667;SDS011;64266;48.798;44.756;2023-12-22T02:24:41;15.65;;;4.35;;
75667;SDS011;64266;48.798;44.756;2023-12-22T02:29:48;14.20;;;3.85;;
75667;SDS011;64266;48.798;44.756;2023-12-22T02:34:55;13.48;;;4.55;;
75667;SDS011;64266;48.798;44.756;2023-12-22T02:40:00;13.95;;;4.63;;
75667;SDS011;64266;48.798;44.756;2023-12-22T02:45:05;33.70;;;5.90;;
75667;SDS011;64266;48.798;44.756;2023-12-22T02:50:09;14.07;;;4.57;;
75667;SDS011;64266;48.798;44.756;2023-12-22T02:55:14;15.98;;;5.90;;
75667;SDS011;64266;48.798;44.756;2023-12-22T03:00:18;10.70;;;4.90;;
75667;SDS011;64266;48.798;44.756;2023-12-22T03:05:21;9.63;;;4.85;;
75667;SDS011;64266;48.798;44.756;2023-12-22T03:10:24;11.02;;;5.45;;
75667;SDS011;64266;48.798;44.756;2023-12-22T03:15:27;10.63;;;5.07;;
75667;SDS011;64266;48.798;44.756;2023-12-22T03:20:31;19.98;;;6.88;;
75667;SDS011;64266;48.798;44.756;2023-12-22T03:25:34;13.40;;;5.70;;
75667;SDS011;64266;48.798;44.756;2023-12-22T03:30:37;14.23;;;5.68;;
75667;SDS011;64266;48.798;44.756;2023-12-22T03:35:41;12.98;;;5.07;;
75667;SDS011;64266;48.798;44.756;2023-12-22T03:40:44;10.57;;;5.40;;
75667;SDS011;64266;48.798;44.756;2023-12-22T03:45:47;16.77;;;6.65;;
75667;SDS011;64266;48.798;44.756;2023-12-22T03:50:50;16.25;;;6.68;;
75667;SDS011;64266;48.798;44.756;2023-12-22T03:55:52;15.25;;;6.13;;
75667;SDS011;64266;48.798;44.756;2023-12-22T04:00:56;17.23;;;5.55;;
75667;SDS011;64266;48.798;44.756;2023-12-22T04:06:02;15.07;;;5.65;;
75667;SDS011;64266;48.798;44.756;2023-12-22T04:11:09;18.38;;;8.23;;
75667;SDS011;64266;48.798;44.756;2023-12-22T04:16:12;17.98;;;8.98;;
75667;SDS011;64266;48.798;44.756;2023-12-22T04:21:15;22.95;;;8.95;;
75667;SDS011;64266;48.798;44.756;2023-12-22T04:26:18;23.15;;;10.50;;
75667;SDS011;64266;48.798;44.756;2023-12-22T04:31:21;34.28;;;9.65;;
75667;SDS011;64266;48.798;44.756;2023-12-22T04:36:24;14.68;;;7.38;;
75667;SDS011;64266;48.798;44.756;2023-12-22T04:41:26;23.10;;;10.48;;
75667;SDS011;64266;48.798;44.756;2023-12-22T04:46:29;18.70;;;10.65;;
75667;SDS011;64266;48.798;44.756;2023-12-22T04:51:33;20.67;;;8.82;;
75667;SDS011;64266;48.798;44.756;2023-12-22T04:56:35;19.35;;;6.88;;
75667;SDS011;64266;48.798;44.756;2023-12-22T05:01:39;19.10;;;7.43;;
75667;SDS011;64266;48.798;44.756;2023-12-22T05:06:42;15.18;;;9.05;;
75667;SDS011;64266;48.798;44.756;2023-12-22T05:11:45;12.32;;;6.63;;
75667;SDS011;64266;48.798;44.756;2023-12-22T05:16:48;15.48;;;6.75;;
75667;SDS011;64266;48.798;44.756;2023-12-22T05:21:51;13.80;;;7.28;;
75667;SDS011;64266;48.798;44.756;2023-12-22T05:26:58;20.55;;;7.55;;
75667;SDS011;64266;48.798;44.756;2023-12-22T05:32:01;25.90;;;10.30;;
75667;SDS011;64266;48.798;44.756;2023-12-22T05:37:05;13.50;;;7.25;;
75667;SDS011;64266;48.798;44.756;2023-12-22T05:42:09;13.55;;;6.28;;
75667;SDS011;64266;48.798;44.756;2023-12-22T05:47:12;21.92;;;8.15;;
75667;SDS011;64266;48.798;44.756;2023-12-22T05:52:15;17.48;;;8.98;;
75667;SDS011;64266;48.798;44.756;2023-12-22T05:57:20;23.25;;;9.90;;
75667;SDS011;64266;48.798;44.756;2023-12-22T06:02:25;22.75;;;9.70;;
75667;SDS011;64266;48.798;44.756;2023-12-22T06:07:28;19.25;;;10.15;;
75667;SDS011;64266;48.798;44.756;2023-12-22T06:12:31;16.17;;;7.47;;
75667;SDS011;64266;48.798;44.756;2023-12-22T06:17:34;18.95;;;8.18;;
75667;SDS011;64266;48.798;44.756;2023-12-22T06:22:37;20.10;;;9.45;;
75667;SDS011;64266;48.798;44.756;2023-12-22T06:27:40;14.35;;;7.38;;
75667;SDS011;64266;48.798;44.756;2023-12-22T06:32:43;14.98;;;7.55;;
75667;SDS011;64266;48.798;44.756;2023-12-22T06:37:46;17.48;;;10.45;;
75667;SDS011;64266;48.798;44.756;2023-12-22T06:42:50;19.52;;;8.40;;
75667;SDS011;64266;48.798;44.756;2023-12-22T06:47:53;15.85;;;7.70;;
75667;SDS011;64266;48.798;44.756;2023-12-22T06:52:56;18.02;;;8.75;;
75667;SDS011;64266;48.798;44.756;2023-12-22T06:58:08;13.60;;;7.10;;
75667;SDS011;64266;48.798;44.756;2023-12-22T07:03:12;12.85;;;7.10;;
75667;SDS011;64266;48.798;44.756;2023-12-22T07:08:15;13.80;;;7.22;;
75667;SDS011;64266;48.798;44.756;2023-12-22T07:13:18;13.63;;;6.22;;
75667;SDS011;64266;48.798;44.756;2023-12-22T07:18:23;12.65;;;5.90;;
75667;SDS011;64266;48.798;44.756;2023-12-22T07:23:35;12.88;;;6.25;;
75667;SDS011;64266;48.798;44.756;2023-12-22T07:28:38;12.60;;;6.13;;
75667;SDS011;64266;48.798;44.756;2023-12-22T07:33:41;19.75;;;10.30;;
75667;SDS011;64266;48.798;44.756;2023-12-22T07:38:44;12.95;;;5.65;;
75667;SDS011;64266;48.798;44.756;2023-12-22T07:43:48;8.80;;;4.60;;
75667;SDS011;64266;48.798;44.756;2023-12-22T07:48:53;12.07;;;4.95;;
75667;SDS011;64266;48.798;44.756;2023-12-22T07:53:56;9.32;;;4.53;;
75667;SDS011;64266;48.798;44.756;2023-12-22T07:59:00;9.75;;;5.00;;
75667;SDS011;64266;48.798;44.756;2023-12-22T08:04:23;13.82;;;5.47;;
75667;SDS011;64266;48.798;44.756;2023-12-22T08:09:27;9.90;;;4.93;;
75667;SDS011;64266;48.798;44.756;2023-12-22T08:14:30;15.38;;;6.38;;
75667;SDS011;64266;48.798;44.756;2023-12-22T08:19:33;14.85;;;6.90;;
75667;SDS011;64266;48.798;44.756;2023-12-22T08:24:38;16.60;;;8.48;;
75667;SDS011;64266;48.798;44.756;2023-12-22T08:34:51;14.90;;;5.88;;
75667;SDS011;64266;48.798;44.756;2023-12-22T08:39:54;15.10;;;6.75;;
75667;SDS011;64266;48.798;44.756;2023-12-22T08:44:58;12.82;;;6.15;;
75667;SDS011;64266;48.798;44.756;2023-12-22T08:50:01;12.57;;;6.63;;
75667;SDS011;64266;48.798;44.756;2023-12-22T08:55:06;13.13;;;5.53;;
75667;SDS011;64266;48.798;44.756;2023-12-22T09:00:10;15.20;;;6.65;;
75667;SDS011;64266;48.798;44.756;2023-12-22T09:05:14;14.77;;;6.78;;
75667;SDS011;64266;48.798;44.756;2023-12-22T09:10:17;17.17;;;6.45;;
75667;SDS011;64266;48.798;44.756;2023-12-22T09:15:21;13.15;;;6.82;;
75667;SDS011;64266;48.798;44.756;2023-12-22T09:20:24;19.48;;;8.13;;
75667;SDS011;64266;48.798;44.756;2023-12-22T09:25:27;15.07;;;6.28;;
75667;SDS011;64266;48.798;44.756;2023-12-22T09:30:32;13.63;;;6.45;;
75667;SDS011;64266;48.798;44.756;2023-12-22T09:35:35;19.52;;;7.35;;
75667;SDS011;64266;48.798;44.756;2023-12-22T09:40:39;17.92;;;7.55;;
75667;SDS011;64266;48.798;44.756;2023-12-22T09:45:43;18.35;;;8.57;;
75667;SDS011;64266;48.798;44.756;2023-12-22T09:50:46;31.27;;;12.30;;
75667;SDS011;64266;48.798;44.756;2023-12-22T09:55:51;18.92;;;8.15;;
75667;SDS011;64266;48.798;44.756;2023-12-22T10:00:56;17.30;;;7.78;;
75667;SDS011;64266;48.798;44.756;2023-12-22T10:06:00;17.27;;;7.72;;
75667;SDS011;64266;48.798;44.756;2023-12-22T10:11:04;18.05;;;8.15;;
75667;SDS011;64266;48.798;44.756;2023-12-22T10:16:08;19.02;;;8.35;;
75667;SDS011;64266;48.798;44.756;2023-12-22T10:21:10;19.58;;;8.45;;
75667;SDS011;64266;48.798;44.756;2023-12-22T10:26:14;23.70;;;8.73;;
75667;SDS011;64266;48.798;44.756;2023-12-22T10:31:20;25.83;;;9.18;;
75667;SDS011;64266;48.798;44.756;2023-12-22T10:36:23;22.65;;;8.85;;
75667;SDS011;64266;48.798;44.756;2023-12-22T10:41:26;22.05;;;9.32;;
75667;SDS011;64266;48.798;44.756;2023-12-22T10:46:30;25.00;;;12.35;;
75667;SDS011;64266;48.798;44.756;2023-12-22T10:51:36;26.25;;;11.23;;
75667;SDS011;64266;48.798;44.756;2023-12-22T10:56:39;21.35;;;8.88;;
75667;SDS011;64266;48.798;44.756;2023-12-22T11:01:43;20.73;;;8.90;;
75667;SDS011;64266;48.798;44.756;2023-12-22T11:06:49;21.17;;;9.13;;
75667;SDS011;64266;48.798;44.756;2023-12-22T11:11:55;22.42;;;8.13;;
75667;SDS011;64266;48.798;44.756;2023-12-22T11:17:00;25.00;;;10.05;;
75667;SDS011;64266;48.798;44.756;2023-12-22T11:22:05;22.00;;;8.77;;
75667;SDS011;64266;48.798;44.756;2023-12-22T11:27:10;32.53;;;11.02;;
75667;SDS011;64266;48.798;44.756;2023-12-22T11:32:15;32.42;;;10.95;;
75667;SDS011;64266;48.798;44.756;2023-12-22T11:37:21;32.10;;;10.02;;
75667;SDS011;64266;48.798;44.756;2023-12-22T11:42:28;29.15;;;9.52;;
75667;SDS011;64266;48.798;44.756;2023-12-22T11:47:39;26.63;;;8.98;;
75667;SDS011;64266;48.798;44.756;2023-12-22T11:52:43;28.13;;;9.43;;
75667;SDS011;64266;48.798;44.756;2023-12-22T11:57:46;28.80;;;8.10;;
75667;SDS011;64266;48.798;44.756;2023-12-22T12:02:55;30.15;;;9.27;;
75667;SDS011;64266;48.798;44.756;2023-12-22T12:08:08;26.75;;;8.90;;
75667;SDS011;64266;48.798;44.756;2023-12-22T12:13:11;33.03;;;13.30;;
75667;SDS011;64266;48.798;44.756;2023-12-22T12:18:21;25.67;;;8.25;;
75667;SDS011;64266;48.798;44.756;2023-12-22T12:23:26;26.75;;;8.88;;
75667;SDS011;64266;48.798;44.756;2023-12-22T12:28:31;22.17;;;8.45;;
75667;SDS011;64266;48.798;44.756;2023-12-22T12:33:36;21.70;;;7.75;;
75667;SDS011;64266;48.798;44.756;2023-12-22T12:43:51;25.58;;;8.63;;
75667;SDS011;64266;48.798;44.756;2023-12-22T12:49:07;29.05;;;9.13;;
75667;SDS011;64266;48.798;44.756;2023-12-22T12:54:14;24.80;;;9.05;;
75667;SDS011;64266;48.798;44.756;2023-12-22T12:59:17;24.67;;;7.85;;
75667;SDS011;64266;48.798;44.756;2023-12-22T13:04:21;39.97;;;16.83;;
75667;SDS011;64266;48.798;44.756;2023-12-22T13:09:30;26.23;;;11.43;;
75667;SDS011;64266;48.798;44.756;2023-12-22T13:14:36;22.30;;;8.48;;
75667;SDS011;64266;48.798;44.756;2023-12-22T13:19:39;25.17;;;9.80;;
75667;SDS011;64266;48.798;44.756;2023-12-22T13:24:54;33.75;;;13.32;;
75667;SDS011;64266;48.798;44.756;2023-12-22T13:29:58;33.72;;;11.95;;
75667;SDS011;64266;48.798;44.756;2023-12-22T13:35:01;30.02;;;9.80;;
75667;SDS011;64266;48.798;44.756;2023-12-22T13:40:07;32.20;;;10.73;;
75667;SDS011;64266;48.798;44.756;2023-12-22T13:45:11;32.72;;;9.55;;
75667;SDS011;64266;48.798;44.756;2023-12-22T13:50:15;40.45;;;10.93;;
75667;SDS011;64266;48.798;44.756;2023-12-22T13:55:19;44.63;;;11.57;;
75667;SDS011;64266;48.798;44.756;2023-12-22T14:00:26;60.28;;;11.88;;
75667;SDS011;64266;48.798;44.756;2023-12-22T14:05:31;58.53;;;11.88;;
75667;SDS011;64266;48.798;44.756;2023-12-22T14:10:36;54.42;;;12.15;;
75667;SDS011;64266;48.798;44.756;2023-12-22T14:15:43;59.53;;;12.43;;
75667;SDS011;64266;48.798;44.756;2023-12-22T14:20:47;48.40;;;10.50;;
75667;SDS011;64266;48.798;44.756;2023-12-22T14:25:49;49.53;;;13.48;;
75667;SDS011;64266;48.798;44.756;2023-12-22T14:30:53;52.15;;;10.23;;
75667;SDS011;64266;48.798;44.756;2023-12-22T14:35:55;39.97;;;10.63;;
75667;SDS011;64266;48.798;44.756;2023-12-22T14:40:58;42.63;;;11.45;;
75667;SDS011;64266;48.798;44.756;2023-12-22T14:46:01;42.15;;;9.90;;
75667;SDS011;64266;48.798;44.756;2023-12-22T14:51:04;39.97;;;9.65;;
75667;SDS011;64266;48.798;44.756;2023-12-22T14:56:08;32.58;;;9.93;;
75667;SDS011;64266;48.798;44.756;2023-12-22T15:01:13;38.55;;;9.25;;
75667;SDS011;64266;48.798;44.756;2023-12-22T15:06:17;37.67;;;9.98;;
75667;SDS011;64266;48.798;44.756;2023-12-22T15:11:21;38.80;;;9.00;;
75667;SDS011;64266;48.798;44.756;2023-12-22T15:16:24;29.38;;;8.13;;
75667;SDS011;64266;48.798;44.756;2023-12-22T15:21:27;33.08;;;9.38;;
75667;SDS011;64266;48.798;44.756;2023-12-22T15:26:30;30.25;;;8.75;;
75667;SDS011;64266;48.798;44.756;2023-12-22T15:31:33;42.90;;;9.73;;
75667;SDS011;64266;48.798;44.756;2023-12-22T15:36:39;29.90;;;10.13;;
75667;SDS011;64266;48.798;44.756;2023-12-22T15:41:42;41.28;;;9.75;;
75667;SDS011;64266;48.798;44.756;2023-12-22T15:46:44;40.85;;;11.65;;
75667;SDS011;64266;48.798;44.756;2023-12-22T15:51:47;39.83;;;11.43;;
75667;SDS011;64266;48.798;44.756;2023-12-22T15:56:55;35.92;;;10.05;;
75667;SDS011;64266;48.798;44.756;2023-12-22T16:01:58;41.08;;;11.55;;
75667;SDS011;64266;48.798;44.756;2023-12-22T16:07:01;37.92;;;9.52;;
75667;SDS011;64266;48.798;44.756;2023-12-22T16:12:04;40.70;;;10.00;;
75667;SDS011;64266;48.798;44.756;2023-12-22T16:17:08;41.63;;;9.18;;
75667;SDS011;64266;48.798;44.756;2023-12-22T16:22:12;42.28;;;10.02;;
75667;SDS011;64266;48.798;44.756;2023-12-22T16:27:14;35.65;;;10.32;;
75667;SDS011;64266;48.798;44.756;2023-12-22T16:32:19;28.25;;;7.65;;
75667;SDS011;64266;48.798;44.756;2023-12-22T16:37:23;29.85;;;8.93;;
75667;SDS011;64266;48.798;44.756;2023-12-22T16:42:26;29.92;;;9.15;;
75667;SDS011;64266;48.798;44.756;2023-12-22T16:47:30;40.70;;;9.70;;
75667;SDS011;64266;48.798;44.756;2023-12-22T16:52:33;31.42;;;9.13;;
75667;SDS011;64266;48.798;44.756;2023-12-22T16:57:37;27.92;;;8.10;;
75667;SDS011;64266;48.798;44.756;2023-12-22T17:02:45;30.77;;;9.70;;
75667;SDS011;64266;48.798;44.756;2023-12-22T17:07:49;49.13;;;15.73;;
75667;SDS011;64266;48.798;44.756;2023-12-22T17:12:53;34.15;;;10.07;;
75667;SDS011;64266;48.798;44.756;2023-12-22T17:17:56;32.70;;;9.07;;
75667;SDS011;64266;48.798;44.756;2023-12-22T17:22:59;38.08;;;8.75;;
75667;SDS011;64266;48.798;44.756;2023-12-22T17:28:03;35.40;;;8.57;;
75667;SDS011;64266;48.798;44.756;2023-12-22T17:33:06;29.05;;;7.65;;
75667;SDS011;64266;48.798;44.756;2023-12-22T17:38:09;32.35;;;7.57;;
75667;SDS011;64266;48.798;44.756;2023-12-22T17:43:12;34.95;;;7.78;;
75667;SDS011;64266;48.798;44.756;2023-12-22T17:48:17;30.85;;;7.25;;
75667;SDS011;64266;48.798;44.756;2023-12-22T17:53:20;34.60;;;6.85;;
75667;SDS011;64266;48.798;44.756;2023-12-22T17:58:28;60.78;;;10.20;;
75667;SDS011;64266;48.798;44.756;2023-12-22T18:03:31;35.67;;;7.88;;
75667;SDS011;64266;48.798;44.756;2023-12-22T18:08:34;42.60;;;8.52;;
75667;SDS011;64266;48.798;44.756;2023-12-22T18:13:37;47.22;;;8.52;;
75667;SDS011;64266;48.798;44.756;2023-12-22T18:18:40;49.42;;;8.98;;
75667;SDS011;64266;48.798;44.756;2023-12-22T18:23:44;50.10;;;9.07;;
75667;SDS011;64266;48.798;44.756;2023-12-22T18:28:47;53.15;;;8.98;;
75667;SDS011;64266;48.798;44.756;2023-12-22T18:33:50;51.22;;;10.40;;
75667;SDS011;64266;48.798;44.756;2023-12-22T18:38:53;48.92;;;9.57;;
75667;SDS011;64266;48.798;44.756;2023-12-22T18:43:57;49.70;;;8.88;;
75667;SDS011;64266;48.798;44.756;2023-12-22T18:49:00;43.30;;;8.02;;
75667;SDS011;64266;48.798;44.756;2023-12-22T18:54:04;54.70;;;7.65;;
75667;SDS011;64266;48.798;44.756;2023-12-22T18:59:07;65.75;;;8.80;;
75667;SDS011;64266;48.798;44.756;2023-12-22T19:04:10;51.20;;;8.70;;
75667;SDS011;64266;48.798;44.756;2023-12-22T19:09:13;59.00;;;9.35;;
75667;SDS011;64266;48.798;44.756;2023-12-22T19:14:16;56.53;;;10.00;;
75667;SDS011;64266;48.798;44.756;2023-12-22T19:19:19;61.80;;;9.68;;
75667;SDS011;64266;48.798;44.756;2023-12-22T19:24:22;51.97;;;8.43;;
75667;SDS011;64266;48.798;44.756;2023-12-22T19:29:25;62.90;;;9.27;;
75667;SDS011;64266;48.798;44.756;2023-12-22T19:34:31;39.17;;;7.38;;
75667;SDS011;64266;48.798;44.756;2023-12-22T19:39:35;45.95;;;8.45;;
75667;SDS011;64266;48.798;44.756;2023-12-22T19:44:38;52.42;;;8.02;;
75667;SDS011;64266;48.798;44.756;2023-12-22T19:49:41;57.92;;;11.75;;
75667;SDS011;64266;48.798;44.756;2023-12-22T19:54:44;49.63;;;9.35;;
75667;SDS011;64266;48.798;44.756;2023-12-22T19:59:47;53.60;;;9.25;;
75667;SDS011;64266;48.798;44.756;2023-12-22T20:04:50;51.40;;;10.20;;
75667;SDS011;64266;48.798;44.756;2023-12-22T20:09:53;51.85;;;8.25;;
75667;SDS011;64266;48.798;44.756;2023-12-22T20:14:56;55.70;;;8.27;;
75667;SDS011;64266;48.798;44.756;2023-12-22T20:20:02;49.20;;;8.40;;
75667;SDS011;64266;48.798;44.756;2023-12-22T20:25:07;55.85;;;8.27;;
75667;SDS011;64266;48.798;44.756;2023-12-22T20:30:12;50.58;;;7.70;;
75667;SDS011;64266;48.798;44.756;2023-12-22T20:35:15;49.95;;;8.15;;
75667;SDS011;64266;48.798;44.756;2023-12-22T20:40:18;43.17;;;9.05;;
75667;SDS011;64266;48.798;44.756;2023-12-22T20:45:21;45.08;;;9.57;;
75667;SDS011;64266;48.798;44.756;2023-12-22T20:50:24;48.33;;;7.65;;
75667;SDS011;64266;48.798;44.756;2023-12-22T20:55:27;47.28;;;7.60;;
75667;SDS011;64266;48.798;44.756;2023-12-22T21:00:30;38.83;;;7.15;;
75667;SDS011;64266;48.798;44.756;2023-12-22T21:05:34;32.65;;;7.95;;
75667;SDS011;64266;48.798;44.756;2023-12-22T21:10:37;35.20;;;7.85;;
75667;SDS011;64266;48.798;44.756;2023-12-22T21:15:40;35.05;;;7.82;;
75667;SDS011;64266;48.798;44.756;2023-12-22T21:20:43;41.50;;;8.05;;
75667;SDS011;64266;48.798;44.756;2023-12-22T21:25:46;41.50;;;8.27;;
75667;SDS011;64266;48.798;44.756;2023-12-22T21:30:51;52.17;;;8.57;;
75667;SDS011;64266;48.798;44.756;2023-12-22T21:35:55;33.15;;;7.07;;
75667;SDS011;64266;48.798;44.756;2023-12-22T21:40:59;34.55;;;8.35;;
75667;SDS011;64266;48.798;44.756;2023-12-22T21:46:03;35.58;;;8.10;;
75667;SDS011;64266;48.798;44.756;2023-12-22T21:51:07;45.85;;;8.18;;
75667;SDS011;64266;48.798;44.756;2023-12-22T21:56:18;30.95;;;6.97;;
75667;SDS011;64266;48.798;44.756;2023-12-22T22:01:22;36.75;;;7.15;;
75667;SDS011;64266;48.798;44.756;2023-12-22T22:06:28;39.80;;;7.53;;
75667;SDS011;64266;48.798;44.756;2023-12-22T22:11:31;41.50;;;7.95;;
75667;SDS011;64266;48.798;44.756;2023-12-22T22:16:34;37.97;;;7.80;;
75667;SDS011;64266;48.798;44.756;2023-12-22T22:21:37;34.25;;;7.65;;
75667;SDS011;64266;48.798;44.756;2023-12-22T22:26:40;35.08;;;8.13;;
75667;SDS011;64266;48.798;44.756;2023-12-22T22:31:43;32.05;;;7.18;;
75667;SDS011;64266;48.798;44.756;2023-12-22T22:36:46;38.83;;;7.28;;
75667;SDS011;64266;48.798;44.756;2023-12-22T22:41:50;30.45;;;8.18;;
75667;SDS011;64266;48.798;44.756;2023-12-22T22:46:53;42.10;;;8.50;;
75667;SDS011;64266;48.798;44.756;2023-12-22T22:51:57;36.58;;;7.00;;
75667;SDS011;64266;48.798;44.756;2023-12-22T22:57:03;32.78;;;7.95;;
75667;SDS011;64266;48.798;44.756;2023-12-22T23:02:06;40.40;;;8.02;;
75667;SDS011;64266;48.798;44.756;2023-12-22T23:07:10;28.17;;;7.78;;
75667;SDS011;64266;48.798;44.756;2023-12-22T23:12:14;26.48;;;7.68;;
75667;SDS011;64266;48.798;44.756;2023-12-22T23:17:18;28.77;;;6.68;;
75667;SDS011;64266;48.798;44.756;2023-12-22T23:22:21;31.38;;;6.70;;
75667;SDS011;64266;48.798;44.756;2023-12-22T23:27:24;29.25;;;7.88;;
75667;SDS011;64266;48.798;44.756;2023-12-22T23:32:27;23.00;;;6.97;;
75667;SDS011;64266;48.798;44.756;2023-12-22T23:37:30;21.83;;;6.85;;
75667;SDS011;64266;48.798;44.756;2023-12-22T23:42:33;19.42;;;5.95;;
75667;SDS011;64266;48.798;44.756;2023-12-22T23:47:36;19.88;;;5.03;;
75667;SDS011;64266;48.798;44.756;2023-12-22T23:52:40;17.35;;;5.82;;
75667;SDS011;64266;48.798;44.756;2023-12-22T23:57:43;14.77;;;5.18;;
